createdAt,value
2022-12-17T00:02:00.080Z,98692.00
2022-12-17T00:04:46.434Z,98691.22
2022-12-17T00:07:32.899Z,98707.94
2022-12-17T00:10:19.106Z,98710.41
2022-12-17T00:13:06.098Z,98713.91
2022-12-17T00:15:53.977Z,98712.00
2022-12-17T00:18:43.366Z,98720.66
2022-12-17T00:21:29.781Z,98718.50
2022-12-17T00:24:16.327Z,98719.84
2022-12-17T00:27:02.974Z,98729.31
2022-12-17T00:29:49.629Z,98734.72
2022-12-17T00:32:37.768Z,98736.63
2022-12-17T00:35:25.406Z,98732.53
2022-12-17T00:45:28.653Z,98746.88
2022-12-17T00:48:15.966Z,98749.31
2022-12-17T00:51:03.317Z,98757.94
2022-12-17T00:53:50.067Z,98760.41
2022-12-17T00:56:37.323Z,98766.88
2022-12-17T00:59:25.623Z,98771.50
2022-12-17T01:02:14.930Z,98775.81
2022-12-17T01:05:04.596Z,98778.78
2022-12-17T01:07:51.227Z,98775.28
2022-12-17T01:11:03.787Z,98786.88
2022-12-17T01:13:54.784Z,98783.91
2022-12-17T01:17:08.730Z,98788.50
2022-12-17T01:19:55.632Z,98789.84
2022-12-17T01:23:08.229Z,98791.22
2022-12-17T01:25:56.798Z,98795.53
2022-12-17T01:28:44.563Z,98798.22
2022-12-17T01:31:35.295Z,98803.38
2022-12-17T01:34:23.831Z,98799.28
2022-12-17T01:43:57.859Z,98817.41
2022-12-17T01:46:51.409Z,98815.28
2022-12-17T01:52:53.080Z,98820.97
2022-12-17T01:55:40.101Z,98824.75
2022-12-17T01:58:27.832Z,98829.59
2022-12-17T02:01:18.247Z,98829.25
2022-12-17T02:07:53.655Z,98826.88
2022-12-17T02:10:58.200Z,98830.38
2022-12-17T02:13:53.659Z,98831.97
2022-12-17T02:16:54.012Z,98838.97
2022-12-17T02:20:03.314Z,98830.91
2022-12-17T02:23:10.580Z,98844.66
2022-12-17T02:26:07.649Z,98847.06
2022-12-17T02:29:02.738Z,98851.34
2022-12-17T02:31:53.676Z,98855.19
2022-12-17T02:34:40.465Z,98852.81
2022-12-17T02:37:52.701Z,98860.25
2022-12-17T02:40:42.074Z,98857.84
2022-12-17T02:43:39.851Z,98857.94
2022-12-17T02:46:27.976Z,98865.78
2022-12-17T02:53:23.851Z,98880.16
2022-12-17T02:56:10.935Z,98891.53
2022-12-17T02:58:58.265Z,98886.91
2022-12-17T03:01:46.301Z,98900.97
2022-12-17T03:07:44.761Z,98913.09
2022-12-17T03:10:56.331Z,98915.31
2022-12-17T03:13:48.210Z,98920.47
2022-12-17T03:16:37.914Z,98933.19
2022-12-17T03:19:26.994Z,98923.72
2022-12-17T03:22:13.831Z,98929.59
2022-12-17T03:25:02.687Z,98936.94
2022-12-17T03:27:52.986Z,98935.34
2022-12-17T03:30:48.665Z,98940.69
2022-12-17T03:33:36.242Z,98938.03
2022-12-17T03:36:26.699Z,98939.94
2022-12-17T03:39:14.870Z,98944.53
2022-12-17T03:42:03.704Z,98951.25
2022-12-17T03:44:50.890Z,98947.44
2022-12-17T03:47:41.826Z,98952.03
2022-12-17T03:50:29.643Z,98954.97
2022-12-17T03:53:42.783Z,98957.16
2022-12-17T03:56:31.009Z,98965.44
2022-12-17T03:59:17.458Z,98967.75
2022-12-17T04:02:06.081Z,98965.81
2022-12-17T04:08:10.271Z,98975.00
2022-12-17T04:10:56.915Z,98979.34
2022-12-17T04:13:45.976Z,98992.94
2022-12-17T04:16:32.935Z,98998.28
2022-12-17T04:19:21.683Z,99003.69
2022-12-17T04:22:33.311Z,99003.44
2022-12-17T04:25:21.705Z,99004.31
2022-12-17T04:28:08.295Z,99015.09
2022-12-17T04:30:55.750Z,99022.06
2022-12-17T04:33:44.203Z,99026.16
2022-12-17T04:36:31.109Z,99037.28
2022-12-17T04:39:17.498Z,99038.59
2022-12-17T04:42:07.663Z,99044.22
2022-12-17T04:44:55.263Z,99046.44
2022-12-17T04:50:53.638Z,99049.56
2022-12-17T04:54:30.430Z,99045.63
2022-12-17T05:07:21.646Z,99065.69
2022-12-17T05:10:33.540Z,99059.03
2022-12-17T05:13:21.656Z,99060.22
2022-12-17T05:16:14.737Z,99067.84
2022-12-17T05:19:04.028Z,99064.75
2022-12-17T05:21:51.358Z,99076.16
2022-12-17T05:24:39.670Z,99079.38
2022-12-17T05:27:27.120Z,99074.81
2022-12-17T05:30:14.275Z,99086.75
2022-12-17T05:33:01.299Z,99084.59
2022-12-17T05:39:30.805Z,99095.34
2022-12-17T05:42:18.869Z,99109.06
2022-12-17T05:48:43.821Z,99123.81
2022-12-17T05:51:34.494Z,99128.22
2022-12-17T05:54:25.661Z,99142.22
2022-12-17T05:57:14.030Z,99135.81
2022-12-17T06:00:04.046Z,99143.06
2022-12-17T06:02:58.823Z,99152.25
2022-12-17T06:06:17.712Z,99159.81
2022-12-17T06:09:04.063Z,99154.75
2022-12-17T06:15:04.675Z,99166.91
2022-12-17T06:17:55.689Z,99159.03
2022-12-17T06:20:44.531Z,99171.41
2022-12-17T06:23:31.097Z,99173.38
2022-12-17T06:26:43.674Z,99164.22
2022-12-17T06:29:30.626Z,99178.34
2022-12-17T06:32:18.883Z,99178.84
2022-12-17T06:35:05.674Z,99189.38
2022-12-17T06:37:52.929Z,99189.97
2022-12-17T06:40:39.887Z,99195.94
2022-12-17T06:43:27.830Z,99204.72
2022-12-17T06:46:40.118Z,99214.91
2022-12-17T06:49:59.494Z,99235.56
2022-12-17T06:52:47.864Z,99233.78
2022-12-17T06:55:38.679Z,99229.28
2022-12-17T06:58:25.414Z,99235.66
2022-12-17T07:01:14.733Z,99239.50
2022-12-17T07:04:02.186Z,99236.50
2022-12-17T07:09:59.975Z,99252.69
2022-12-17T07:12:46.880Z,99251.94
2022-12-17T07:15:34.960Z,99259.38
2022-12-17T07:18:22.794Z,99261.84
2022-12-17T07:21:12.989Z,99264.91
2022-12-17T07:23:59.659Z,99267.88
2022-12-17T07:26:49.676Z,99269.66
2022-12-17T07:29:36.824Z,99276.94
2022-12-17T07:32:27.821Z,99282.69
2022-12-17T07:35:15.248Z,99278.81
2022-12-17T07:38:03.701Z,99278.31
2022-12-17T07:40:52.369Z,99291.97
2022-12-17T07:44:03.985Z,99293.28
2022-12-17T07:46:51.387Z,99299.59
2022-12-17T07:49:39.915Z,99302.06
2022-12-17T07:52:51.498Z,99308.47
2022-12-17T07:56:04.911Z,99309.75
2022-12-17T07:58:51.703Z,99315.31
2022-12-17T08:02:23.921Z,99328.97
2022-12-17T08:05:39.231Z,99330.31
2022-12-17T08:08:29.747Z,99334.66
2022-12-17T08:11:17.348Z,99329.47
2022-12-17T08:14:03.784Z,99343.94
2022-12-17T08:17:15.325Z,99342.75
2022-12-17T08:20:06.831Z,99351.28
2022-12-17T08:22:55.535Z,99346.22
2022-12-17T08:25:43.003Z,99351.75
2022-12-17T08:34:51.738Z,99361.44
2022-12-17T08:37:39.929Z,99367.84
2022-12-17T08:43:39.861Z,99363.72
2022-12-17T08:46:26.665Z,99361.38
2022-12-17T08:52:28.835Z,99381.72
2022-12-17T08:55:40.434Z,99378.06
2022-12-17T08:58:31.835Z,99377.53
2022-12-17T09:01:20.441Z,99376.69
2022-12-17T09:04:09.760Z,99387.00
2022-12-17T09:06:57.827Z,99389.41
2022-12-17T09:10:26.657Z,99387.94
2022-12-17T09:13:38.783Z,99401.81
2022-12-17T09:16:51.733Z,99402.06
2022-12-17T09:19:40.672Z,99396.38
2022-12-17T09:26:17.703Z,99399.44
2022-12-17T09:29:07.989Z,99404.34
2022-12-17T09:35:05.167Z,99405.63
2022-12-17T09:37:52.095Z,99403.09
2022-12-17T09:40:43.703Z,99415.84
2022-12-17T09:43:51.617Z,99414.72
2022-12-17T09:50:03.421Z,99412.50
2022-12-17T09:52:59.673Z,99432.13
2022-12-17T09:55:58.669Z,99437.56
2022-12-17T09:58:48.207Z,99431.56
2022-12-17T10:01:39.816Z,99423.56
2022-12-17T10:04:39.835Z,99426.50
2022-12-17T10:07:37.944Z,99426.72
2022-12-17T10:10:51.895Z,99432.63
2022-12-17T10:13:45.720Z,99431.81
2022-12-17T10:16:48.582Z,99435.03
2022-12-17T10:26:51.350Z,99451.06
2022-12-17T10:29:45.543Z,99446.03
2022-12-17T10:32:35.105Z,99452.28
2022-12-17T10:35:32.259Z,99452.34
2022-12-17T10:38:21.766Z,99471.22
2022-12-17T10:41:08.404Z,99470.09
2022-12-17T10:43:59.652Z,99459.94
2022-12-17T10:46:49.459Z,99470.81
2022-12-17T10:49:39.701Z,99472.16
2022-12-17T10:52:47.145Z,99483.22
2022-12-17T10:55:43.765Z,99483.97
2022-12-17T10:58:40.330Z,99488.88
2022-12-17T11:01:46.940Z,99495.59
2022-12-17T11:04:55.803Z,99484.41
2022-12-17T11:08:28.807Z,99493.72
2022-12-17T11:11:43.073Z,99492.41
2022-12-17T11:14:34.837Z,99495.69
2022-12-17T11:17:24.650Z,99496.03
2022-12-17T11:20:19.687Z,99509.31
2022-12-17T11:23:12.002Z,99509.72
2022-12-17T11:26:09.551Z,99505.75
2022-12-17T11:29:00.212Z,99509.25
2022-12-17T11:32:11.700Z,99528.38
2022-12-17T11:35:15.894Z,99530.13
2022-12-17T11:38:18.850Z,99520.31
2022-12-17T11:41:12.343Z,99531.63
2022-12-17T11:44:30.687Z,99534.78
2022-12-17T11:47:35.135Z,99532.41
2022-12-17T11:50:44.453Z,99529.00
2022-12-17T11:53:52.633Z,99528.19
2022-12-17T11:57:07.669Z,99530.28
2022-12-17T12:00:12.039Z,99544.19
2022-12-17T12:03:26.807Z,99532.31
2022-12-17T12:06:17.171Z,99549.19
2022-12-17T12:09:23.772Z,99539.75
2022-12-17T12:12:16.956Z,99540.13
2022-12-17T12:15:31.929Z,99548.38
2022-12-17T12:18:40.282Z,99552.91
2022-12-17T12:22:05.775Z,99547.06
2022-12-17T12:25:18.300Z,99549.09
2022-12-17T12:28:10.151Z,99538.94
2022-12-17T12:31:21.637Z,99556.66
2022-12-17T12:34:27.745Z,99552.56
2022-12-17T12:37:18.758Z,99563.38
2022-12-17T12:40:20.277Z,99561.09
2022-12-17T12:43:46.700Z,99571.56
2022-12-17T12:47:15.788Z,99573.88
2022-12-17T12:50:16.110Z,99574.38
2022-12-17T12:56:14.187Z,99576.84
2022-12-17T12:59:01.189Z,99581.94
2022-12-17T13:01:57.808Z,99564.84
2022-12-17T13:04:53.096Z,99591.88
2022-12-17T13:07:25.470Z,99586.97
2022-12-17T13:09:57.596Z,99589.47
2022-12-17T13:12:51.921Z,99597.41
2022-12-17T13:15:33.670Z,99601.22
2022-12-17T13:18:25.843Z,99598.38
2022-12-17T13:21:27.167Z,99605.81
2022-12-17T13:24:04.937Z,99607.22
2022-12-17T13:26:43.805Z,99606.63
2022-12-17T13:29:38.989Z,99605.56
2022-12-17T13:32:30.847Z,99621.69
2022-12-17T13:38:40.254Z,99614.69
2022-12-17T13:41:16.416Z,99613.34
2022-12-17T13:43:55.450Z,99623.19
2022-12-17T13:46:27.224Z,99630.56
2022-12-17T13:49:29.315Z,99632.91
2022-12-17T13:52:21.502Z,99639.41
2022-12-17T13:57:47.210Z,99643.66
2022-12-17T14:00:31.141Z,99652.66
2022-12-17T14:03:12.997Z,99648.25
2022-12-17T14:05:44.980Z,99640.69
2022-12-17T14:08:22.766Z,99655.28
2022-12-17T14:11:14.623Z,99664.44
2022-12-17T14:13:47.664Z,99657.16
2022-12-17T14:16:46.111Z,99664.78
2022-12-17T14:19:42.851Z,99670.34
2022-12-17T14:22:51.387Z,99678.03
2022-12-17T14:25:45.770Z,99675.69
2022-12-17T14:28:25.634Z,99681.97
2022-12-17T14:31:27.871Z,99683.84
2022-12-17T14:34:11.447Z,99683.28
2022-12-17T14:36:43.751Z,99681.81
2022-12-17T14:39:23.232Z,99686.91
2022-12-17T14:45:25.131Z,99688.34
2022-12-17T14:47:59.539Z,99690.97
2022-12-17T14:50:56.857Z,99698.03
2022-12-17T14:53:27.739Z,99702.09
2022-12-17T14:55:57.600Z,99704.00
2022-12-17T14:58:27.714Z,99715.69
2022-12-17T15:01:16.823Z,99713.88
2022-12-17T15:03:48.247Z,99725.69
2022-12-17T15:06:20.710Z,99723.41
2022-12-17T15:08:53.202Z,99727.03
2022-12-17T15:11:23.717Z,99737.94
2022-12-17T15:13:56.414Z,99734.03
2022-12-17T15:16:25.685Z,99741.06
2022-12-17T15:18:53.597Z,99737.53
2022-12-17T15:21:24.843Z,99753.84
2022-12-17T15:23:53.681Z,99750.94
2022-12-17T15:26:21.565Z,99748.53
2022-12-17T15:28:49.676Z,99750.94
2022-12-17T15:31:21.879Z,99756.00
2022-12-17T15:33:54.061Z,99763.13
2022-12-17T15:36:23.421Z,99766.47
2022-12-17T15:38:51.293Z,99758.25
2022-12-17T15:41:38.126Z,99764.34
2022-12-17T15:44:06.051Z,99771.97
2022-12-17T15:46:34.843Z,99766.53
2022-12-17T15:49:04.810Z,99777.44
2022-12-17T15:51:32.923Z,99770.34
2022-12-17T15:54:00.909Z,99766.63
2022-12-17T15:56:29.522Z,99767.94
2022-12-17T15:58:58.267Z,99781.00
2022-12-17T16:01:27.009Z,99774.31
2022-12-17T16:03:55.970Z,99792.91
2022-12-17T16:06:25.454Z,99782.72
2022-12-17T16:08:53.301Z,99793.25
2022-12-17T16:11:22.384Z,99784.63
2022-12-17T16:13:54.158Z,99797.22
2022-12-17T16:16:23.923Z,99796.03
2022-12-17T16:18:52.506Z,99798.94
2022-12-17T16:21:20.427Z,99802.94
2022-12-17T16:23:50.904Z,99817.94
2022-12-17T16:26:18.729Z,99810.16
2022-12-17T16:28:47.430Z,99807.94
2022-12-17T16:34:12.713Z,99816.28
2022-12-17T16:36:42.825Z,99817.59
2022-12-17T16:39:16.854Z,99821.25
2022-12-17T16:41:45.897Z,99821.84
2022-12-17T16:44:14.012Z,99826.56
2022-12-17T16:46:44.753Z,99813.09
2022-12-17T16:49:16.736Z,99811.66
2022-12-17T16:51:50.814Z,99825.50
2022-12-17T16:54:21.130Z,99825.56
2022-12-17T16:56:51.185Z,99829.53
2022-12-17T16:59:19.086Z,99829.03
2022-12-17T17:01:50.879Z,99830.31
2022-12-17T17:04:21.222Z,99834.31
2022-12-17T17:06:53.693Z,99842.88
2022-12-17T17:09:23.350Z,99845.56
2022-12-17T17:11:59.366Z,99847.81
2022-12-17T17:14:27.542Z,99846.84
2022-12-17T17:16:56.401Z,99845.94
2022-12-17T17:19:24.667Z,99846.28
2022-12-17T17:21:54.154Z,99852.25
2022-12-17T17:24:26.208Z,99853.09
2022-12-17T17:26:55.501Z,99852.94
2022-12-17T17:29:24.437Z,99857.41
2022-12-17T17:32:09.832Z,99849.78
2022-12-17T17:34:39.153Z,99853.91
2022-12-17T17:37:09.704Z,99858.72
2022-12-17T17:39:37.538Z,99848.50
2022-12-17T17:42:06.438Z,99854.03
2022-12-17T17:44:35.195Z,99856.59
2022-12-17T17:47:03.741Z,99860.34
2022-12-17T17:49:31.713Z,99858.59
2022-12-17T17:52:09.485Z,99856.41
2022-12-17T17:54:39.629Z,99865.53
2022-12-17T17:57:08.683Z,99878.56
2022-12-17T17:59:38.163Z,99875.25
2022-12-17T18:02:07.312Z,99877.63
2022-12-17T18:04:35.477Z,99879.84
2022-12-17T18:09:51.721Z,99879.94
2022-12-17T18:12:38.699Z,99883.13
2022-12-17T18:15:16.795Z,99880.66
2022-12-17T18:17:54.783Z,99879.72
2022-12-17T18:20:22.678Z,99877.63
2022-12-17T18:22:50.746Z,99884.28
2022-12-17T18:25:18.636Z,99892.59
2022-12-17T18:27:46.696Z,99898.47
2022-12-17T18:30:16.311Z,99890.50
2022-12-17T18:32:45.689Z,99897.78
2022-12-17T18:35:13.560Z,99897.41
2022-12-17T18:37:42.233Z,99900.56
2022-12-17T18:40:10.629Z,99908.06
2022-12-17T18:42:57.958Z,99912.53
2022-12-17T18:45:26.374Z,99916.66
2022-12-17T18:47:54.749Z,99904.28
2022-12-17T18:50:22.611Z,99920.72
2022-12-17T18:52:51.374Z,99930.63
2022-12-17T18:55:19.494Z,99925.97
2022-12-17T18:57:48.426Z,99932.19
2022-12-17T19:00:16.470Z,99935.59
2022-12-17T19:02:44.608Z,99932.53
2022-12-17T19:05:12.680Z,99928.09
2022-12-17T19:07:40.546Z,99940.41
2022-12-17T19:10:09.006Z,99935.59
2022-12-17T19:12:36.940Z,99941.63
2022-12-17T19:15:05.219Z,99938.91
2022-12-17T19:17:33.060Z,99948.81
2022-12-17T19:20:01.575Z,99944.13
2022-12-17T19:22:29.513Z,99950.94
2022-12-17T19:24:57.390Z,99954.16
2022-12-17T19:27:25.409Z,99952.22
2022-12-17T19:29:56.679Z,99959.56
2022-12-17T19:32:24.900Z,99957.13
2022-12-17T19:34:53.538Z,99962.63
2022-12-17T19:37:21.694Z,99969.13
2022-12-17T19:39:50.726Z,99957.25
2022-12-17T19:42:25.186Z,99961.13
2022-12-17T19:44:56.650Z,99957.00
2022-12-17T19:47:24.664Z,99966.50
2022-12-17T19:49:52.690Z,99973.28
2022-12-17T19:52:20.539Z,99962.56
2022-12-17T19:54:49.285Z,99978.16
2022-12-17T19:57:18.698Z,99975.94
2022-12-17T19:59:47.437Z,99981.16
2022-12-17T20:02:17.308Z,99973.84
2022-12-17T20:04:45.409Z,99975.81
2022-12-17T20:07:13.285Z,99983.38
2022-12-17T20:09:44.647Z,99991.06
2022-12-17T20:12:13.846Z,100000.50
2022-12-17T20:14:42.673Z,99997.13
2022-12-17T20:17:11.507Z,100000.78
2022-12-17T20:19:39.615Z,100000.16
2022-12-17T20:22:07.749Z,100020.47
2022-12-17T20:24:37.695Z,100006.16
2022-12-17T20:27:06.141Z,100011.19
2022-12-17T20:29:34.104Z,100004.63
2022-12-17T20:32:02.245Z,100011.13
2022-12-17T20:34:30.330Z,100015.00
2022-12-17T20:36:58.431Z,100011.94
2022-12-17T20:39:28.193Z,100012.88
2022-12-17T20:41:57.781Z,100022.06
2022-12-17T20:44:25.963Z,100026.53
2022-12-17T20:46:54.042Z,100003.88
2022-12-17T20:49:21.993Z,100029.50
2022-12-17T20:51:50.011Z,100022.09
2022-12-17T20:54:17.917Z,100029.13
2022-12-17T20:56:45.868Z,100034.41
2022-12-17T20:59:16.817Z,100025.03
2022-12-17T21:01:48.186Z,100012.56
2022-12-17T21:04:19.543Z,100030.75
2022-12-17T21:06:48.648Z,100035.34
2022-12-17T21:09:20.166Z,100034.38
2022-12-17T21:11:48.390Z,100028.56
2022-12-17T21:14:18.541Z,100029.31
2022-12-17T21:16:47.430Z,100029.75
2022-12-17T21:19:17.778Z,100038.41
2022-12-17T21:21:45.842Z,100028.44
2022-12-17T21:24:14.573Z,100021.88
2022-12-17T21:26:43.907Z,100041.94
2022-12-17T21:29:12.068Z,100036.16
2022-12-17T21:31:45.909Z,100061.56
2022-12-17T21:34:21.662Z,100058.25
2022-12-17T21:36:50.921Z,100064.25
2022-12-17T21:39:19.563Z,100066.09
2022-12-17T21:42:07.528Z,100068.75
2022-12-17T21:44:36.522Z,100071.88
2022-12-17T21:47:04.663Z,100068.59
2022-12-17T21:49:32.619Z,100077.25
2022-12-17T21:52:01.797Z,100075.59
2022-12-17T21:54:29.790Z,100063.22
2022-12-17T21:56:57.744Z,100075.22
2022-12-17T21:59:25.685Z,100075.22
2022-12-17T22:01:57.799Z,100084.69
2022-12-17T22:04:26.463Z,100083.06
2022-12-17T22:06:57.221Z,100080.56
2022-12-17T22:09:41.959Z,100085.50
2022-12-17T22:12:34.210Z,100064.06
2022-12-17T22:15:02.102Z,100088.81
2022-12-17T22:17:30.427Z,100091.94
2022-12-17T22:19:58.297Z,100070.25
2022-12-17T22:22:26.251Z,100042.59
2022-12-17T22:24:57.460Z,100089.81
2022-12-17T22:27:25.573Z,100095.00
2022-12-17T22:30:12.143Z,100103.66
2022-12-17T22:32:58.748Z,100090.03
2022-12-17T22:37:41.082Z,100096.63
2022-12-17T22:41:25.909Z,100098.91
2022-12-17T22:44:32.174Z,100098.69
2022-12-17T22:44:48.243Z,100086.97
2022-12-17T22:47:11.115Z,100109.44
2022-12-17T22:49:41.360Z,100120.59
2022-12-17T22:52:12.101Z,100114.63
2022-12-17T22:54:40.215Z,100111.94
2022-12-17T22:57:36.397Z,100095.00
2022-12-17T22:59:56.522Z,100117.72
2022-12-17T23:02:24.497Z,100105.75
2022-12-17T23:04:52.419Z,100102.84
2022-12-17T23:07:20.342Z,100111.72
2022-12-17T23:09:48.229Z,100095.41
2022-12-17T23:12:34.782Z,100112.72
2022-12-17T23:15:02.700Z,100104.50
2022-12-17T23:17:32.871Z,100101.22
2022-12-17T23:20:03.591Z,100104.09
2022-12-17T23:22:31.538Z,100110.88
2022-12-17T23:24:59.422Z,100114.41
2022-12-17T23:27:27.300Z,100106.16
2022-12-17T23:29:55.428Z,100104.91
2022-12-17T23:32:23.326Z,100110.28
2022-12-17T23:34:51.204Z,100121.00
2022-12-17T23:37:19.178Z,100113.16
2022-12-17T23:39:47.110Z,100111.72
2022-12-17T23:42:15.071Z,100120.16
2022-12-17T23:44:43.063Z,100113.34
2022-12-17T23:47:11.431Z,100116.88
2022-12-17T23:49:39.319Z,100123.47
2022-12-17T23:52:07.256Z,100128.81
2022-12-17T23:54:37.451Z,100126.75
2022-12-17T23:57:05.396Z,100112.75
2022-12-17T23:59:33.425Z,100111.50
